Climatologie pour Saint-Brevin les Pins
Jour • Résumé pour juillet 23, 2017 Système :  Métrique    Anglais   Mixte
« - 1 jour
+ 1 jour »
Jour Semaine Mois Année Personnalisé
  Maximum : Minimum : Moyenne :
Température sous abri : 19.2 °C 15.4 °C 17.2 °C
Point de rosée : 18.6 °C 11.9 °C 14.9 °C
Humidité : 97 % 75 % 87 %
Vitesse du vent : 20.9 km/h 0.0 km/h 9.3 km/h
Rafale : 33.8 km/h - -
Direction :- - West
Pression : 1017.8 hPa 1014.4 hPa -
Précipitations : 6.6 mm    
Historical Graphs
 
 
Tableau de données pour juillet 23, 2017
Heure Tempé Pt rosée Pression Vent Vitesse Rafale Humidité Taux pluie (/hr) Soleil
00:00 16.4 °C 12.4 °C 1015.8 hPa West 9.7 km/h 22.5 km/h 77 % 0.0 mm 0 W/m2
00:10 16.4 °C 12.6 °C 1015.8 hPa NW 8.0 km/h 25.7 km/h 78 % 0.0 mm 0 W/m2
00:15 16.5 °C 12.5 °C 1015.8 hPa NW 4.8 km/h 25.7 km/h 77 % 0.0 mm 0 W/m2
00:25 16.3 °C 11.9 °C 1015.8 hPa WNW 8.0 km/h 25.7 km/h 75 % 0.0 mm 0 W/m2
00:30 16.3 °C 12.1 °C 1015.8 hPa NW 3.2 km/h 24.1 km/h 76 % 0.0 mm 0 W/m2
00:35 16.4 °C 12.1 °C 1015.8 hPa NW 6.4 km/h 25.7 km/h 76 % 0.0 mm 0 W/m2
00:40 16.4 °C 12.3 °C 1015.8 hPa WNW 12.9 km/h 27.4 km/h 77 % 0.0 mm 0 W/m2
00:45 16.4 °C 12.4 °C 1015.8 hPa WNW 14.5 km/h 27.4 km/h 77 % 0.0 mm 0 W/m2
00:50 16.4 °C 12.6 °C 1015.8 hPa WNW 16.1 km/h 25.7 km/h 78 % 0.0 mm 0 W/m2
00:55 16.4 °C 12.6 °C 1016.1 hPa West 12.9 km/h 25.7 km/h 78 % 0.0 mm 0 W/m2
01:00 16.4 °C 12.5 °C 1015.8 hPa WSW 14.5 km/h 33.8 km/h 78 % 0.0 mm 0 W/m2
01:10 16.4 °C 11.9 °C 1015.8 hPa WNW 12.9 km/h 29.0 km/h 75 % 0.0 mm 0 W/m2
01:15 16.4 °C 12.1 °C 1015.8 hPa NW 17.7 km/h 29.0 km/h 76 % 0.0 mm 0 W/m2
01:20 16.3 °C 12.3 °C 1016.1 hPa WNW 12.9 km/h 25.7 km/h 77 % 0.0 mm 0 W/m2
01:25 16.2 °C 12.2 °C 1016.1 hPa West 8.0 km/h 25.7 km/h 77 % 0.0 mm 0 W/m2
01:30 16.2 °C 12.3 °C 1016.1 hPa West 14.5 km/h 27.4 km/h 78 % 0.0 mm 0 W/m2
01:35 16.3 °C 12.4 °C 1016.1 hPa NW 17.7 km/h 27.4 km/h 78 % 0.0 mm 0 W/m2
01:40 16.4 °C 12.7 °C 1016.1 hPa NNW 8.0 km/h 22.5 km/h 79 % 0.0 mm 0 W/m2
01:45 16.4 °C 12.6 °C 1016.1 hPa NW 9.7 km/h 22.5 km/h 78 % 0.0 mm 0 W/m2
01:50 16.4 °C 12.4 °C 1016.1 hPa West 8.0 km/h 24.1 km/h 77 % 0.0 mm 0 W/m2
01:55 16.3 °C 12.3 °C 1016.1 hPa NW 9.7 km/h 27.4 km/h 77 % 0.0 mm 0 W/m2
02:00 16.3 °C 12.3 °C 1016.1 hPa WNW 16.1 km/h 27.4 km/h 77 % 0.0 mm 0 W/m2
02:05 16.2 °C 12.4 °C 1016.1 hPa West 11.3 km/h 27.4 km/h 78 % 0.0 mm 0 W/m2
02:10 16.3 °C 12.4 °C 1016.1 hPa West 8.0 km/h 27.4 km/h 78 % 0.0 mm 0 W/m2
02:15 16.4 °C 12.5 °C 1016.1 hPa WNW 1.6 km/h 20.9 km/h 78 % 0.0 mm 0 W/m2
02:20 16.3 °C 12.9 °C 1016.1 hPa West 9.7 km/h 24.1 km/h 80 % 0.0 mm 0 W/m2
02:25 16.3 °C 13.0 °C 1016.1 hPa West 4.8 km/h 24.1 km/h 81 % 0.0 mm 0 W/m2
02:30 16.3 °C 13.1 °C 1016.1 hPa NW 16.1 km/h 27.4 km/h 81 % 0.0 mm 0 W/m2
02:35 16.3 °C 12.8 °C 1016.1 hPa WNW 4.8 km/h 27.4 km/h 80 % 0.0 mm 0 W/m2
02:40 16.2 °C 12.7 °C 1016.1 hPa West 12.9 km/h 25.7 km/h 80 % 0.0 mm 0 W/m2
02:45 16.1 °C 12.6 °C 1016.1 hPa WNW 9.7 km/h 25.7 km/h 80 % 0.0 mm 0 W/m2
02:50 16.1 °C 12.6 °C 1016.5 hPa WNW 9.7 km/h 24.1 km/h 80 % 0.0 mm 0 W/m2
02:55 16.1 °C 12.5 °C 1016.5 hPa WNW 8.0 km/h 22.5 km/h 79 % 0.0 mm 0 W/m2
03:00 16.2 °C 12.5 °C 1016.5 hPa WNW 16.1 km/h 22.5 km/h 79 % 0.0 mm 0 W/m2
03:05 16.2 °C 12.6 °C 1016.5 hPa WSW 6.4 km/h 22.5 km/h 79 % 0.0 mm 0 W/m2
03:15 16.2 °C 12.6 °C 1016.5 hPa West 8.0 km/h 22.5 km/h 79 % 0.0 mm 0 W/m2
03:20 16.1 °C 12.7 °C 1016.5 hPa WNW 11.3 km/h 22.5 km/h 80 % 0.0 mm 0 W/m2
03:25 16.2 °C 12.7 °C 1016.5 hPa WNW 6.4 km/h 19.3 km/h 80 % 0.0 mm 0 W/m2
03:30 16.2 °C 12.8 °C 1016.5 hPa WNW 9.7 km/h 27.4 km/h 80 % 0.0 mm 0 W/m2
03:35 16.2 °C 12.6 °C 1016.5 hPa West 20.9 km/h 27.4 km/h 79 % 0.0 mm 0 W/m2
03:40 16.1 °C 12.1 °C 1016.5 hPa West 16.1 km/h 27.4 km/h 77 % 0.0 mm 0 W/m2
03:45 16.2 °C 12.1 °C 1016.5 hPa West 9.7 km/h 29.0 km/h 77 % 0.0 mm 0 W/m2
03:50 16.1 °C 12.2 °C 1016.5 hPa West 8.0 km/h 29.0 km/h 78 % 0.0 mm 0 W/m2
03:55 16.0 °C 12.2 °C 1016.5 hPa WNW 8.0 km/h 20.9 km/h 78 % 0.0 mm 0 W/m2
04:00 16.0 °C 12.4 °C 1016.5 hPa West 12.9 km/h 19.3 km/h 79 % 0.0 mm 0 W/m2
04:05 16.0 °C 12.4 °C 1016.5 hPa WNW 4.8 km/h 20.9 km/h 79 % 0.0 mm 0 W/m2
04:10 16.0 °C 12.4 °C 1016.5 hPa West 6.4 km/h 20.9 km/h 79 % 0.0 mm 0 W/m2
04:15 16.1 °C 12.6 °C 1016.5 hPa WNW 19.3 km/h 25.7 km/h 80 % 0.0 mm 0 W/m2
04:20 16.1 °C 12.4 °C 1016.5 hPa WNW 9.7 km/h 25.7 km/h 79 % 0.0 mm 0 W/m2
04:25 15.9 °C 12.5 °C 1016.5 hPa West 16.1 km/h 19.3 km/h 80 % 0.0 mm 0 W/m2
04:30 15.9 °C 12.6 °C 1016.5 hPa WSW 11.3 km/h 17.7 km/h 81 % 0.0 mm 0 W/m2
04:35 15.9 °C 12.7 °C 1016.5 hPa WNW 3.2 km/h 17.7 km/h 81 % 0.0 mm 0 W/m2
04:40 16.2 °C 12.9 °C 1016.5 hPa West 16.1 km/h 17.7 km/h 81 % 0.0 mm 0 W/m2
04:45 16.2 °C 12.7 °C 1016.5 hPa West 11.3 km/h 19.3 km/h 80 % 0.0 mm 0 W/m2
04:50 16.1 °C 12.7 °C 1016.5 hPa West 12.9 km/h 19.3 km/h 80 % 0.0 mm 0 W/m2
04:55 16.1 °C 12.7 °C 1016.5 hPa WNW 16.1 km/h 20.9 km/h 80 % 0.0 mm 0 W/m2
05:00 16.0 °C 12.5 °C 1016.5 hPa WNW 4.8 km/h 20.9 km/h 80 % 0.0 mm 0 W/m2
05:05 15.8 °C 12.5 °C 1016.5 hPa WNW 8.0 km/h 19.3 km/h 81 % 0.0 mm 0 W/m2
05:10 15.7 °C 12.4 °C 1016.5 hPa NW 8.0 km/h 16.1 km/h 81 % 0.0 mm 0 W/m2
05:15 15.5 °C 12.4 °C 1016.5 hPa WNW 4.8 km/h 17.7 km/h 82 % 0.0 mm 0 W/m2
05:20 15.6 °C 12.5 °C 1016.5 hPa Calm   20.9 km/h 82 % 0.0 mm 0 W/m2
05:25 15.4 °C 12.4 °C 1016.5 hPa WNW 4.8 km/h 20.9 km/h 82 % 0.0 mm 0 W/m2
05:30 15.5 °C 12.3 °C 1016.5 hPa WNW 6.4 km/h 14.5 km/h 81 % 0.0 mm 0 W/m2
05:35 15.5 °C 12.3 °C 1016.5 hPa WNW 1.6 km/h 14.5 km/h 81 % 0.0 mm 0 W/m2
05:40 15.4 °C 12.3 °C 1016.5 hPa WNW 8.0 km/h 12.9 km/h 82 % 0.0 mm 0 W/m2
05:45 15.4 °C 12.3 °C 1016.5 hPa West 8.0 km/h 17.7 km/h 82 % 0.0 mm 0 W/m2
05:50 15.6 °C 12.4 °C 1016.5 hPa WNW 6.4 km/h 19.3 km/h 81 % 0.0 mm 0 W/m2
05:55 15.7 °C 12.3 °C 1016.5 hPa NW 8.0 km/h 19.3 km/h 80 % 0.0 mm 0 W/m2
06:00 15.9 °C 12.4 °C 1016.8 hPa West 12.9 km/h 20.9 km/h 80 % 0.0 mm 0 W/m2
06:05 16.1 °C 12.4 °C 1016.8 hPa WNW 9.7 km/h 20.9 km/h 79 % 0.0 mm 0 W/m2
06:10 16.2 °C 12.3 °C 1016.8 hPa WNW 6.4 km/h 17.7 km/h 78 % 0.0 mm 0 W/m2
06:15 16.2 °C 12.3 °C 1016.8 hPa West 11.3 km/h 19.3 km/h 78 % 0.0 mm 0 W/m2
06:20 16.2 °C 12.3 °C 1016.8 hPa West 12.9 km/h 19.3 km/h 78 % 0.0 mm 0 W/m2
06:30 16.0 °C 12.4 °C 1016.8 hPa WSW 8.0 km/h 19.3 km/h 79 % 0.0 mm 0 W/m2
06:35 16.0 °C 12.4 °C 1016.8 hPa WSW 12.9 km/h 17.7 km/h 79 % 0.0 mm 0 W/m2
06:40 16.0 °C 12.5 °C 1016.8 hPa SW 4.8 km/h 17.7 km/h 80 % 0.0 mm 0 W/m2
06:45 16.0 °C 12.2 °C 1016.8 hPa Calm   17.7 km/h 78 % 0.0 mm 5 W/m2
06:50 16.0 °C 12.2 °C 1016.8 hPa WNW 16.1 km/h 17.7 km/h 78 % 0.0 mm 7 W/m2
06:55 16.1 °C 12.2 °C 1016.8 hPa NW 16.1 km/h 22.5 km/h 78 % 0.0 mm 9 W/m2
07:00 16.1 °C 12.4 °C 1016.8 hPa WNW 8.0 km/h 22.5 km/h 79 % 0.0 mm 11 W/m2
07:05 15.9 °C 12.5 °C 1016.8 hPa WSW 8.0 km/h 16.1 km/h 80 % 0.0 mm 14 W/m2
07:10 15.8 °C 12.6 °C 1016.8 hPa WNW 11.3 km/h 16.1 km/h 81 % 0.0 mm 18 W/m2
07:15 15.9 °C 12.4 °C 1016.8 hPa WNW 6.4 km/h 20.9 km/h 80 % 0.0 mm 26 W/m2
07:20 16.0 °C 12.4 °C 1016.8 hPa WSW 4.8 km/h 20.9 km/h 79 % 0.0 mm 39 W/m2
07:25 16.2 °C 12.5 °C 1016.8 hPa WNW 11.3 km/h 19.3 km/h 79 % 0.0 mm 49 W/m2
07:30 16.4 °C 12.6 °C 1017.2 hPa West 9.7 km/h 20.9 km/h 78 % 0.0 mm 54 W/m2
07:35 16.6 °C 12.8 °C 1017.2 hPa NW 8.0 km/h 20.9 km/h 78 % 0.0 mm 63 W/m2
07:40 16.7 °C 12.8 °C 1017.2 hPa West 4.8 km/h 20.9 km/h 78 % 0.0 mm 77 W/m2
07:45 16.8 °C 12.9 °C 1017.2 hPa West 8.0 km/h 24.1 km/h 78 % 0.0 mm 67 W/m2
07:50 16.8 °C 12.7 °C 1017.2 hPa WNW 8.0 km/h 24.1 km/h 77 % 0.0 mm 70 W/m2
07:55 16.7 °C 12.7 °C 1017.2 hPa WNW 4.8 km/h 19.3 km/h 77 % 0.0 mm 67 W/m2
08:00 16.7 °C 12.6 °C 1017.2 hPa NW 12.9 km/h 16.1 km/h 77 % 0.0 mm 72 W/m2
08:05 16.7 °C 12.4 °C 1017.2 hPa WNW 8.0 km/h 17.7 km/h 76 % 0.0 mm 88 W/m2
08:10 16.7 °C 12.5 °C 1017.2 hPa West 14.5 km/h 20.9 km/h 76 % 0.0 mm 102 W/m2
08:15 16.8 °C 12.6 °C 1017.2 hPa WNW 12.9 km/h 22.5 km/h 76 % 0.0 mm 107 W/m2
08:20 16.9 °C 12.6 °C 1017.2 hPa WNW 8.0 km/h 22.5 km/h 76 % 0.0 mm 105 W/m2
08:25 16.9 °C 12.6 °C 1017.5 hPa West 3.2 km/h 20.9 km/h 76 % 0.0 mm 107 W/m2
08:30 16.9 °C 12.7 °C 1017.5 hPa West 8.0 km/h 17.7 km/h 76 % 0.0 mm 206 W/m2
08:35 17.2 °C 12.9 °C 1017.5 hPa West 6.4 km/h 12.9 km/h 76 % 0.0 mm 172 W/m2
08:40 17.3 °C 12.8 °C 1017.5 hPa West 9.7 km/h 19.3 km/h 75 % 0.0 mm 213 W/m2
08:45 17.3 °C 12.9 °C 1017.5 hPa West 8.0 km/h 19.3 km/h 75 % 0.0 mm 141 W/m2
08:50 17.4 °C 13.1 °C 1017.5 hPa WNW 3.2 km/h 14.5 km/h 76 % 0.0 mm 181 W/m2
08:55 17.7 °C 13.4 °C 1017.5 hPa WSW 8.0 km/h 19.3 km/h 76 % 0.0 mm 153 W/m2
09:00 17.7 °C 13.4 °C 1017.5 hPa WNW 14.5 km/h 19.3 km/h 76 % 0.0 mm 374 W/m2
09:05 18.1 °C 13.5 °C 1017.5 hPa West 3.2 km/h 17.7 km/h 75 % 0.0 mm 279 W/m2
09:15 17.9 °C 13.4 °C 1017.5 hPa West 6.4 km/h 16.1 km/h 75 % 0.0 mm 232 W/m2
09:20 17.9 °C 13.4 °C 1017.5 hPa NW 14.5 km/h 16.1 km/h 75 % 0.0 mm 179 W/m2
09:25 17.9 °C 13.4 °C 1017.5 hPa WNW 12.9 km/h 14.5 km/h 75 % 0.0 mm 221 W/m2
09:30 18.1 °C 13.8 °C 1017.5 hPa Calm   16.1 km/h 76 % 0.0 mm 288 W/m2
09:35 18.3 °C 14.0 °C 1017.5 hPa West 6.4 km/h 16.1 km/h 76 % 0.0 mm 209 W/m2
09:40 18.3 °C 13.8 °C 1017.5 hPa West 14.5 km/h 17.7 km/h 75 % 0.0 mm 149 W/m2
09:45 18.0 °C 13.5 °C 1017.8 hPa NW 6.4 km/h 19.3 km/h 75 % 0.0 mm 83 W/m2
09:50 17.8 °C 13.5 °C 1017.5 hPa WNW 8.0 km/h 19.3 km/h 76 % 0.0 mm 214 W/m2
09:55 18.0 °C 13.9 °C 1017.8 hPa West 6.4 km/h 19.3 km/h 77 % 0.0 mm 281 W/m2
10:00 18.3 °C 14.2 °C 1017.5 hPa WNW 4.8 km/h 19.3 km/h 77 % 0.0 mm 174 W/m2
10:05 18.3 °C 14.0 °C 1017.5 hPa SW 8.0 km/h 19.3 km/h 76 % 0.0 mm 260 W/m2
10:10 18.5 °C 14.2 °C 1017.5 hPa WSW 11.3 km/h 19.3 km/h 76 % 0.0 mm 251 W/m2
10:15 18.7 °C 14.6 °C 1017.5 hPa West 8.0 km/h 20.9 km/h 77 % 0.0 mm 290 W/m2
10:20 18.7 °C 14.1 °C 1017.5 hPa SW 4.8 km/h 20.9 km/h 75 % 0.0 mm 332 W/m2
10:25 18.9 °C 14.4 °C 1017.5 hPa WSW 8.0 km/h 19.3 km/h 75 % 0.0 mm 346 W/m2
10:35 19.2 °C 14.6 °C 1017.5 hPa West 6.4 km/h 19.3 km/h 75 % 0.0 mm 362 W/m2
10:40 19.1 °C 14.6 °C 1017.5 hPa WNW 11.3 km/h 16.1 km/h 75 % 0.0 mm 292 W/m2
10:45 18.8 °C 14.3 °C 1017.5 hPa SW 11.3 km/h 24.1 km/h 75 % 0.0 mm 178 W/m2
10:50 18.6 °C 14.2 °C 1017.5 hPa SSW 9.7 km/h 24.1 km/h 76 % 0.0 mm 174 W/m2
10:55 18.4 °C 14.1 °C 1017.5 hPa SW 3.2 km/h 19.3 km/h 76 % 0.0 mm 213 W/m2
11:00 18.4 °C 14.3 °C 1017.5 hPa West 6.4 km/h 22.5 km/h 77 % 0.0 mm 213 W/m2
11:05 18.5 °C 14.4 °C 1017.5 hPa SW 14.5 km/h 22.5 km/h 77 % 0.0 mm 139 W/m2
11:10 18.4 °C 14.5 °C 1017.5 hPa WNW 9.7 km/h 20.9 km/h 78 % 0.0 mm 156 W/m2
11:15 18.0 °C 14.5 °C 1017.5 hPa SSW 6.4 km/h 19.3 km/h 80 % 0.0 mm 137 W/m2
11:20 17.8 °C 14.7 °C 1017.5 hPa West 4.8 km/h 17.7 km/h 82 % 0.0 mm 134 W/m2
11:25 17.9 °C 14.8 °C 1017.5 hPa WNW 3.2 km/h 19.3 km/h 82 % 0.0 mm 178 W/m2
11:30 17.9 °C 15.1 °C 1017.5 hPa WSW 6.4 km/h 19.3 km/h 84 % 0.0 mm 135 W/m2
11:35 17.8 °C 15.3 °C 1017.5 hPa WNW 3.2 km/h 11.3 km/h 85 % 0.0 mm 148 W/m2
11:40 17.8 °C 14.7 °C 1017.5 hPa WSW 8.0 km/h 22.5 km/h 82 % 0.0 mm 183 W/m2
11:45 17.9 °C 14.2 °C 1017.5 hPa West 11.3 km/h 22.5 km/h 79 % 0.0 mm 209 W/m2
11:50 17.9 °C 14.2 °C 1017.5 hPa WNW 8.0 km/h 20.9 km/h 79 % 0.0 mm 151 W/m2
11:55 17.8 °C 14.1 °C 1017.5 hPa SW 9.7 km/h 20.9 km/h 79 % 0.0 mm 77 W/m2
12:00 17.6 °C 14.3 °C 1017.5 hPa West 12.9 km/h 17.7 km/h 81 % 0.0 mm 102 W/m2
12:05 17.3 °C 14.4 °C 1017.5 hPa WSW 11.3 km/h 16.1 km/h 83 % 0.0 mm 241 W/m2
12:10 17.6 °C 15.0 °C 1017.5 hPa SW 4.8 km/h 14.5 km/h 85 % 0.0 mm 248 W/m2
12:15 17.9 °C 15.0 °C 1017.5 hPa West 12.9 km/h 14.5 km/h 83 % 0.0 mm 246 W/m2
12:20 17.8 °C 14.7 °C 1017.8 hPa WSW 3.2 km/h 19.3 km/h 82 % 0.0 mm 211 W/m2
12:25 17.4 °C 14.9 °C 1017.8 hPa WSW 16.1 km/h 20.9 km/h 85 % 0.0 mm 165 W/m2
12:30 17.1 °C 14.9 °C 1017.5 hPa WSW 11.3 km/h 24.1 km/h 87 % 0.0 mm 209 W/m2
12:35 16.8 °C 14.8 °C 1017.5 hPa WSW 4.8 km/h 24.1 km/h 88 % 0.0 mm 148 W/m2
12:40 16.7 °C 14.9 °C 1017.5 hPa WSW 4.8 km/h 17.7 km/h 89 % 0.0 mm 195 W/m2
12:45 16.7 °C 15.0 °C 1017.5 hPa WNW 3.2 km/h 17.7 km/h 90 % 0.0 mm 181 W/m2
12:50 16.7 °C 15.2 °C 1017.5 hPa WSW 8.0 km/h 17.7 km/h 91 % 0.0 mm 118 W/m2
12:55 16.6 °C 15.3 °C 1017.5 hPa South 4.8 km/h 16.1 km/h 92 % 0.0 mm 218 W/m2
13:00 16.8 °C 15.7 °C 1017.5 hPa SSW 6.4 km/h 16.1 km/h 93 % 0.0 mm 165 W/m2
13:05 16.7 °C 15.6 °C 1017.5 hPa SW 4.8 km/h 17.7 km/h 93 % 0.0 mm 183 W/m2
13:10 16.7 °C 15.6 °C 1017.5 hPa South 14.5 km/h 17.7 km/h 93 % 0.3 mm 202 W/m2
13:15 16.7 °C 15.8 °C 1017.2 hPa South 1.6 km/h 16.1 km/h 94 % 0.5 mm 197 W/m2
13:20 16.8 °C 15.8 °C 1017.2 hPa Calm   16.1 km/h 94 % 0.5 mm 183 W/m2
13:25 16.7 °C 15.8 °C 1017.2 hPa SW 8.0 km/h 16.1 km/h 94 % 0.5 mm 149 W/m2
13:30 16.6 °C 15.6 °C 1017.2 hPa SSW 8.0 km/h 16.1 km/h 94 % 0.8 mm 204 W/m2
13:35 16.6 °C 15.6 °C 1017.2 hPa SSW 12.9 km/h 16.1 km/h 94 % 1.3 mm 237 W/m2
13:40 16.6 °C 15.6 °C 1016.8 hPa SSE 14.5 km/h 14.5 km/h 94 % 1.3 mm 148 W/m2
13:45 16.6 °C 15.8 °C 1016.8 hPa South 4.8 km/h 19.3 km/h 95 % 1.5 mm 176 W/m2
13:50 16.8 °C 16.0 °C 1016.8 hPa SSW 9.7 km/h 19.3 km/h 95 % 1.5 mm 149 W/m2
13:55 16.7 °C 15.9 °C 1016.8 hPa SSW 9.7 km/h 20.9 km/h 95 % 1.5 mm 174 W/m2
14:00 16.7 °C 15.9 °C 1016.8 hPa SW 8.0 km/h 20.9 km/h 95 % 1.8 mm 165 W/m2
14:05 16.7 °C 15.9 °C 1016.8 hPa SSW 8.0 km/h 17.7 km/h 95 % 1.8 mm 97 W/m2
14:10 16.6 °C 15.8 °C 1016.8 hPa SSW 14.5 km/h 16.1 km/h 95 % 1.5 mm 93 W/m2
14:15 16.7 °C 15.9 °C 1016.5 hPa South 17.7 km/h 17.7 km/h 95 % 1.5 mm 125 W/m2
14:20 16.7 °C 15.9 °C 1016.5 hPa SW 9.7 km/h 17.7 km/h 95 % 1.8 mm 109 W/m2
14:30 16.8 °C 16.0 °C 1016.5 hPa South 12.9 km/h 19.3 km/h 95 % 2.0 mm 123 W/m2
14:35 16.8 °C 16.2 °C 1016.1 hPa South 17.7 km/h 19.3 km/h 96 % 2.0 mm 169 W/m2
14:40 16.9 °C 16.2 °C 1016.1 hPa South 11.3 km/h 19.3 km/h 96 % 2.3 mm 139 W/m2
14:45 16.9 °C 16.3 °C 1015.8 hPa SSE 8.0 km/h 27.4 km/h 96 % 1.8 mm 188 W/m2
14:50 17.1 °C 16.4 °C 1015.8 hPa South 6.4 km/h 27.4 km/h 96 % 2.0 mm 104 W/m2
14:55 17.1 °C 16.5 °C 1015.8 hPa SSW 6.4 km/h 24.1 km/h 96 % 2.3 mm 97 W/m2
15:00 17.2 °C 16.6 °C 1015.8 hPa SSW 6.4 km/h 22.5 km/h 96 % 2.3 mm 113 W/m2
15:05 17.3 °C 16.7 °C 1015.5 hPa SSW 8.0 km/h 22.5 km/h 96 % 2.8 mm 100 W/m2
15:10 17.4 °C 16.8 °C 1015.5 hPa SW 17.7 km/h 20.9 km/h 96 % 3.0 mm 113 W/m2
15:15 17.7 °C 17.2 °C 1015.5 hPa WSW 12.9 km/h 25.7 km/h 97 % 3.3 mm 102 W/m2
15:20 18.2 °C 17.7 °C 1015.5 hPa NW 6.4 km/h 25.7 km/h 97 % 3.3 mm 171 W/m2
15:25 18.3 °C 17.8 °C 1015.5 hPa WNW 16.1 km/h 24.1 km/h 97 % 3.3 mm 163 W/m2
15:30 18.4 °C 18.0 °C 1015.5 hPa West 16.1 km/h 25.7 km/h 97 % 2.8 mm 186 W/m2
15:35 18.4 °C 18.0 °C 1015.5 hPa West 12.9 km/h 25.7 km/h 97 % 2.3 mm 227 W/m2
15:40 18.7 °C 18.2 °C 1015.5 hPa WNW 11.3 km/h 24.1 km/h 97 % 2.3 mm 207 W/m2
15:45 18.6 °C 18.1 °C 1015.5 hPa WNW 11.3 km/h 24.1 km/h 97 % 2.0 mm 216 W/m2
15:50 18.7 °C 18.2 °C 1015.1 hPa West 4.8 km/h 20.9 km/h 97 % 2.0 mm 250 W/m2
15:55 18.9 °C 18.4 °C 1015.1 hPa WSW 20.9 km/h 24.1 km/h 97 % 1.8 mm 302 W/m2
16:00 18.9 °C 18.5 °C 1015.1 hPa WSW 16.1 km/h 24.1 km/h 97 % 1.5 mm 318 W/m2
16:05 19.1 °C 18.6 °C 1015.1 hPa West 14.5 km/h 22.5 km/h 97 % 1.0 mm 422 W/m2
16:10 19.1 °C 18.6 °C 1015.1 hPa West 4.8 km/h 24.1 km/h 97 % 0.5 mm 311 W/m2
16:15 18.9 °C 18.4 °C 1015.1 hPa West 11.3 km/h 24.1 km/h 97 % 0.5 mm 364 W/m2
16:20 19.0 °C 18.5 °C 1015.1 hPa NW 9.7 km/h 29.0 km/h 97 % 0.3 mm 218 W/m2
16:25 18.9 °C 18.4 °C 1015.1 hPa West 4.8 km/h 29.0 km/h 97 % 0.0 mm 260 W/m2
16:30 18.8 °C 18.3 °C 1015.1 hPa WNW 6.4 km/h 25.7 km/h 97 % 0.0 mm 199 W/m2
16:40 18.8 °C 18.3 °C 1015.1 hPa West 9.7 km/h 24.1 km/h 97 % 0.0 mm 225 W/m2
16:45 18.8 °C 18.3 °C 1015.1 hPa WSW 17.7 km/h 22.5 km/h 97 % 0.0 mm 165 W/m2
16:50 18.8 °C 18.3 °C 1015.1 hPa WNW 4.8 km/h 22.5 km/h 97 % 0.0 mm 146 W/m2
16:55 18.8 °C 18.3 °C 1015.1 hPa WNW 11.3 km/h 20.9 km/h 97 % 0.0 mm 149 W/m2
17:00 18.8 °C 18.3 °C 1015.1 hPa SW 4.8 km/h 20.9 km/h 97 % 0.0 mm 120 W/m2
17:05 18.6 °C 17.9 °C 1015.1 hPa West 11.3 km/h 24.1 km/h 96 % 0.0 mm 206 W/m2
17:10 18.6 °C 18.1 °C 1014.8 hPa West 4.8 km/h 24.1 km/h 97 % 0.0 mm 144 W/m2
17:15 18.8 °C 18.3 °C 1014.8 hPa WSW 11.3 km/h 24.1 km/h 97 % 0.0 mm 230 W/m2
17:20 18.7 °C 18.2 °C 1015.1 hPa West 11.3 km/h 29.0 km/h 97 % 0.0 mm 186 W/m2
17:25 18.7 °C 18.0 °C 1014.8 hPa SW 11.3 km/h 29.0 km/h 96 % 0.0 mm 171 W/m2
17:30 18.6 °C 18.0 °C 1014.8 hPa WNW 9.7 km/h 22.5 km/h 96 % 0.0 mm 142 W/m2
17:35 18.6 °C 17.9 °C 1014.8 hPa WNW 16.1 km/h 22.5 km/h 96 % 0.0 mm 209 W/m2
17:40 18.7 °C 18.2 °C 1014.8 hPa WSW 8.0 km/h 19.3 km/h 97 % 0.0 mm 153 W/m2
17:45 18.7 °C 18.0 °C 1014.8 hPa Calm   19.3 km/h 96 % 0.0 mm 120 W/m2
17:50 18.6 °C 17.9 °C 1014.8 hPa WSW 11.3 km/h 24.1 km/h 96 % 0.0 mm 148 W/m2
17:55 18.6 °C 17.9 °C 1014.8 hPa West 12.9 km/h 32.2 km/h 96 % 0.0 mm 155 W/m2
18:00 18.5 °C 17.9 °C 1014.8 hPa West 17.7 km/h 32.2 km/h 96 % 0.0 mm 148 W/m2
18:05 18.5 °C 17.7 °C 1014.8 hPa WNW 16.1 km/h 24.1 km/h 95 % 0.0 mm 102 W/m2
18:10 18.3 °C 17.5 °C 1014.8 hPa NW 20.9 km/h 27.4 km/h 95 % 0.0 mm 76 W/m2
18:15 18.3 °C 17.5 °C 1014.8 hPa West 19.3 km/h 27.4 km/h 95 % 0.0 mm 83 W/m2
18:20 18.3 °C 17.5 °C 1014.8 hPa WNW 11.3 km/h 22.5 km/h 95 % 0.0 mm 77 W/m2
18:25 18.3 °C 17.5 °C 1014.8 hPa West 14.5 km/h 22.5 km/h 95 % 0.0 mm 109 W/m2
18:30 18.3 °C 17.5 °C 1014.8 hPa West 9.7 km/h 25.7 km/h 95 % 0.0 mm 135 W/m2
18:35 18.3 °C 17.5 °C 1014.8 hPa WNW 9.7 km/h 25.7 km/h 95 % 0.0 mm 127 W/m2
18:40 18.3 °C 17.5 °C 1014.8 hPa NNW 8.0 km/h 25.7 km/h 95 % 0.0 mm 83 W/m2
18:45 18.3 °C 17.5 °C 1014.8 hPa West 8.0 km/h 25.7 km/h 95 % 0.0 mm 90 W/m2
18:50 18.2 °C 17.4 °C 1014.8 hPa SW 11.3 km/h 27.4 km/h 95 % 0.0 mm 62 W/m2
18:55 18.2 °C 17.4 °C 1014.8 hPa West 17.7 km/h 27.4 km/h 95 % 0.0 mm 67 W/m2
19:05 18.1 °C 17.3 °C 1014.8 hPa North 8.0 km/h 24.1 km/h 95 % 0.0 mm 62 W/m2
19:10 18.1 °C 17.1 °C 1014.8 hPa NW 11.3 km/h 24.1 km/h 94 % 0.0 mm 67 W/m2
19:15 18.0 °C 17.0 °C 1014.8 hPa WNW 20.9 km/h 24.1 km/h 94 % 0.0 mm 42 W/m2
19:20 18.0 °C 17.0 °C 1014.4 hPa WNW 4.8 km/h 30.6 km/h 94 % 0.0 mm 46 W/m2
19:25 17.9 °C 17.0 °C 1014.8 hPa NW 17.7 km/h 30.6 km/h 94 % 0.0 mm 77 W/m2
19:30 18.0 °C 17.0 °C 1014.8 hPa NW 16.1 km/h 29.0 km/h 94 % 0.0 mm 49 W/m2
19:35 18.0 °C 17.0 °C 1014.8 hPa WNW 6.4 km/h 29.0 km/h 94 % 0.0 mm 79 W/m2
19:40 17.9 °C 17.0 °C 1014.8 hPa WNW 14.5 km/h 30.6 km/h 94 % 0.0 mm 62 W/m2
19:45 17.9 °C 17.0 °C 1014.8 hPa WNW 9.7 km/h 30.6 km/h 94 % 0.0 mm 28 W/m2
19:50 17.9 °C 16.9 °C 1014.8 hPa West 14.5 km/h 30.6 km/h 94 % 0.0 mm 35 W/m2
19:55 17.9 °C 16.9 °C 1014.8 hPa WNW 16.1 km/h 27.4 km/h 94 % 0.0 mm 46 W/m2
20:00 17.9 °C 16.9 °C 1014.8 hPa WNW 16.1 km/h 27.4 km/h 94 % 0.0 mm 28 W/m2
20:05 17.8 °C 17.0 °C 1014.8 hPa WNW 6.4 km/h 27.4 km/h 95 % 0.0 mm 33 W/m2
20:10 17.8 °C 17.0 °C 1014.8 hPa West 14.5 km/h 27.4 km/h 95 % 0.0 mm 51 W/m2
20:15 17.8 °C 16.8 °C 1014.4 hPa NW 11.3 km/h 24.1 km/h 94 % 0.0 mm 25 W/m2
20:20 17.8 °C 17.0 °C 1014.4 hPa WNW 16.1 km/h 24.1 km/h 95 % 0.0 mm 14 W/m2
20:30 17.7 °C 16.9 °C 1014.4 hPa WSW 4.8 km/h 29.0 km/h 95 % 0.0 mm 37 W/m2
20:35 17.7 °C 16.9 °C 1014.4 hPa WNW 4.8 km/h 19.3 km/h 95 % 0.3 mm 44 W/m2
20:40 17.7 °C 16.9 °C 1014.4 hPa NW 6.4 km/h 20.9 km/h 95 % 0.3 mm 21 W/m2
20:45 17.6 °C 17.0 °C 1014.8 hPa WSW 9.7 km/h 20.9 km/h 96 % 0.3 mm 21 W/m2
20:50 17.6 °C 16.9 °C 1014.4 hPa West 11.3 km/h 19.3 km/h 96 % 0.3 mm 18 W/m2
20:55 17.6 °C 16.9 °C 1014.4 hPa NW 8.0 km/h 19.3 km/h 96 % 0.3 mm 21 W/m2
21:00 17.5 °C 16.9 °C 1014.4 hPa NW 6.4 km/h 22.5 km/h 96 % 0.3 mm 16 W/m2
21:05 17.4 °C 16.8 °C 1014.4 hPa West 20.9 km/h 22.5 km/h 96 % 0.3 mm 14 W/m2
21:10 17.4 °C 16.7 °C 1014.4 hPa NW 14.5 km/h 22.5 km/h 96 % 0.5 mm 12 W/m2
21:15 17.3 °C 16.7 °C 1014.8 hPa West 8.0 km/h 22.5 km/h 96 % 0.5 mm 7 W/m2
21:20 17.3 °C 16.7 °C 1014.4 hPa West 6.4 km/h 20.9 km/h 96 % 0.5 mm 7 W/m2
21:25 17.3 °C 16.7 °C 1014.4 hPa NW 11.3 km/h 20.9 km/h 96 % 0.5 mm 5 W/m2
21:30 17.3 °C 16.7 °C 1014.4 hPa West 11.3 km/h 19.3 km/h 96 % 0.5 mm 0 W/m2
21:35 17.3 °C 16.6 °C 1014.8 hPa WNW 9.7 km/h 19.3 km/h 96 % 0.3 mm 0 W/m2
21:40 17.3 °C 16.6 °C 1014.8 hPa WNW 4.8 km/h 19.3 km/h 96 % 0.3 mm 0 W/m2
21:45 17.3 °C 16.8 °C 1014.8 hPa NW 16.1 km/h 17.7 km/h 97 % 0.3 mm 0 W/m2
21:50 17.2 °C 16.6 °C 1014.8 hPa NNW 8.0 km/h 20.9 km/h 96 % 0.3 mm 0 W/m2
21:55 17.2 °C 16.5 °C 1014.8 hPa WNW 9.7 km/h 20.9 km/h 96 % 0.3 mm 0 W/m2
22:00 17.1 °C 16.5 °C 1014.8 hPa West 4.8 km/h 16.1 km/h 96 % 0.3 mm 0 W/m2
22:05 17.1 °C 16.5 °C 1014.8 hPa NNW 6.4 km/h 16.1 km/h 96 % 0.0 mm 0 W/m2
22:10 17.1 °C 16.6 °C 1014.8 hPa WNW 3.2 km/h 12.9 km/h 97 % 0.0 mm 0 W/m2
22:15 17.1 °C 16.6 °C 1014.8 hPa WNW 6.4 km/h 14.5 km/h 97 % 0.0 mm 0 W/m2
22:20 16.9 °C 16.5 °C 1015.1 hPa NW 6.4 km/h 14.5 km/h 97 % 0.0 mm 0 W/m2
22:25 16.9 °C 16.5 °C 1014.8 hPa NW 9.7 km/h 14.5 km/h 97 % 0.0 mm 0 W/m2
22:30 16.9 °C 16.5 °C 1015.1 hPa NW 12.9 km/h 14.5 km/h 97 % 0.0 mm 0 W/m2
22:35 17.0 °C 16.5 °C 1015.1 hPa WNW 4.8 km/h 14.5 km/h 97 % 0.3 mm 0 W/m2
22:40 16.9 °C 16.5 °C 1015.1 hPa NW 9.7 km/h 12.9 km/h 97 % 0.5 mm 0 W/m2
22:45 16.9 °C 16.5 °C 1015.1 hPa NNW 3.2 km/h 11.3 km/h 97 % 0.5 mm 0 W/m2
22:50 16.9 °C 16.4 °C 1015.1 hPa Calm   9.7 km/h 97 % 0.5 mm 0 W/m2
22:55 16.9 °C 16.4 °C 1015.1 hPa West 1.6 km/h 9.7 km/h 97 % 0.5 mm 0 W/m2
23:00 16.9 °C 16.4 °C 1015.1 hPa WNW 3.2 km/h 11.3 km/h 97 % 0.5 mm 0 W/m2
23:05 16.9 °C 16.5 °C 1015.1 hPa NW 4.8 km/h 11.3 km/h 97 % 0.5 mm 0 W/m2
23:10 16.9 °C 16.4 °C 1015.1 hPa Calm   11.3 km/h 97 % 0.5 mm 0 W/m2
23:15 16.9 °C 16.4 °C 1015.1 hPa NNW 9.7 km/h 11.3 km/h 97 % 0.5 mm 0 W/m2
23:20 16.9 °C 16.4 °C 1015.1 hPa North 1.6 km/h 9.7 km/h 97 % 0.5 mm 0 W/m2
23:25 16.8 °C 16.4 °C 1015.1 hPa North 1.6 km/h 9.7 km/h 97 % 0.5 mm 0 W/m2
23:30 16.8 °C 16.3 °C 1015.1 hPa NNW 1.6 km/h 12.9 km/h 97 % 0.5 mm 0 W/m2
23:35 16.7 °C 16.2 °C 1015.1 hPa Calm   12.9 km/h 97 % 0.5 mm 0 W/m2
23:40 16.6 °C 16.1 °C 1015.1 hPa Calm   4.8 km/h 97 % 0.3 mm 0 W/m2
23:45 16.6 °C 16.1 °C 1015.1 hPa Calm   4.8 km/h 97 % 0.3 mm 0 W/m2
23:50 16.6 °C 16.1 °C 1015.1 hPa Calm   1.6 km/h 97 % 0.3 mm 0 W/m2
23:55 16.6 °C 16.1 °C 1015.1 hPa Calm     97 % 0.3 mm 0 W/m2
Avec l'autorisation de Weather Underground - 1.75 mb